Fm Prosperity — J8B3932 — position and weather

sailwx.info

Track history (hours):
 
Tides and Currents Weather Stations Pressure Air Temp Water Temp Dewpoint Dewpoint Depression Visibility Wind Speed Wind Dir Waves Ship Positions

Fm Prosperity

Last reported at 2014-Jul-26 22:20 UTC. Time now 2014-Aug-21 12:09 UTC.
Position N 30°38' W 116°24'.
Warning: this ship's position is 25 days out of date.

Length 122 m; draft 5.7 m.

Type: Cargo ship. MMSI: 376746000.

Date/timePositionNaut miles runAvg speedWind from/ knotsBaromVisibWave heightAir tempDewpointWater temp
2014-Jul-26 22:20N 30°38' W 116°24'1113.9
2014-Jul-26 21:33N 30°47' W 116°30'61 1.3
2014-Jul-25 00:33N 31°48' W 116°40'10 9.5
2014-Jul-24 23:29N 31°40' W 116°48'1112.3
2014-Jul-24 22:34N 31°30' W 116°44'1211.9
2014-Jul-24 21:33N 31°18' W 116°39'1212.2
2014-Jul-24 20:33N 31°07' W 116°35'1211.9
2014-Jul-24 19:31N 30°55' W 116°30'20710.9
2014-Jul-24 00:30N 27°37' W 115°20'  
Track history (hours):
 
Tides and Currents Weather Stations Pressure Air Temp Water Temp Dewpoint Dewpoint Depression Visibility Wind Speed Wind Dir Waves Ship Positions

Fm Prosperity

Last reported at 2014-Jul-26 22:20 UTC. Time now 2014-Aug-21 12:09 UTC.
Position N 30°38' W 116°24'.
Warning: this ship's position is 25 days out of date.

Length 122 m; draft 5.7 m.

Type: Cargo ship. MMSI: 376746000.

Date/timePositionNaut miles runAvg speedWind from/ knotsBaromVisibWave heightAir tempDewpointWater temp
2014-Jul-26 22:20N 30°38' W 116°24'1113.9
2014-Jul-26 21:33N 30°47' W 116°30'61 1.3
2014-Jul-25 00:33N 31°48' W 116°40'10 9.5
2014-Jul-24 23:29N 31°40' W 116°48'1112.3
2014-Jul-24 22:34N 31°30' W 116°44'1211.9
2014-Jul-24 21:33N 31°18' W 116°39'1212.2
2014-Jul-24 20:33N 31°07' W 116°35'1211.9
2014-Jul-24 19:31N 30°55' W 116°30'20710.9
2014-Jul-24 00:30N 27°37' W 115°20'  

Dump ship's entire track history